Time,TemperatureF,DewpointF,PressureIn,WindDirection,WindDirectionDegrees,WindSpeedMPH,WindSpeedGustMPH,Humidity,HourlyPrecipIn,Conditions,Clouds,dailyrainin,SoftwareType,DateUTC
2013-04-26 00:01:00,45.0,25.0,-100.00,SE,130,3.0,4.0,45,-99.99,,,-99.99,,2013-04-26 07:01:00,
2013-04-26 00:11:00,45.0,25.0,-100.00,SE,127,2.0,3.0,46,-99.99,,,-99.99,,2013-04-26 07:11:00,
2013-04-26 00:22:00,45.0,26.0,-100.00,SE,134,2.0,4.0,47,-99.99,,,-99.99,,2013-04-26 07:22:00,
2013-04-26 00:31:00,45.0,25.0,-100.00,SE,131,3.0,4.0,45,-99.99,,,-99.99,,2013-04-26 07:31:00,
2013-04-26 00:42:00,45.0,25.0,-100.00,SE,134,3.0,4.0,45,-99.99,,,-99.99,,2013-04-26 07:42:00,
2013-04-26 00:52:00,45.0,25.0,-100.00,SE,136,1.0,3.0,46,-99.99,,,-99.99,,2013-04-26 07:52:00,
2013-04-26 01:02:00,45.0,26.0,-100.00,SE,131,2.0,4.0,47,-99.99,,,-99.99,,2013-04-26 08:02:00,
2013-04-26 01:11:00,44.0,26.0,-100.00,SSE,154,1.0,3.0,48,-99.99,,,-99.99,,2013-04-26 08:11:00,
2013-04-26 01:21:00,44.0,26.0,-100.00,ESE,116,2.0,3.0,48,-99.99,,,-99.99,,2013-04-26 08:21:00,
2013-04-26 01:31:00,44.0,26.0,-100.00,SE,133,3.0,3.0,49,-99.99,,,-99.99,,2013-04-26 08:31:00,
2013-04-26 01:42:00,44.0,27.0,-100.00,ESE,113,2.0,3.0,50,-99.99,,,-99.99,,2013-04-26 08:42:00,
2013-04-26 01:51:00,44.0,28.0,-100.00,SE,140,2.0,3.0,52,-99.99,,,-99.99,,2013-04-26 08:51:00,
2013-04-26 02:01:00,43.0,27.0,-100.00,ESE,116,2.0,3.0,53,-99.99,,,-99.99,,2013-04-26 09:01:00,
2013-04-26 02:11:00,43.0,28.0,-100.00,ESE,104,2.0,3.0,54,-99.99,,,-99.99,,2013-04-26 09:11:00,
2013-04-26 02:21:00,42.0,28.0,-100.00,ENE,73,2.0,4.0,57,-99.99,,,-99.99,,2013-04-26 09:21:00,
2013-04-26 02:32:00,42.0,28.0,-100.00,ESE,121,3.0,4.0,57,-99.99,,,-99.99,,2013-04-26 09:32:00,
2013-04-26 02:42:00,42.0,28.0,-100.00,SSE,162,1.0,2.0,58,-99.99,,,-99.99,,2013-04-26 09:42:00,
2013-04-26 02:53:00,42.0,29.0,-100.00,SE,133,3.0,5.0,60,-99.99,,,-99.99,,2013-04-26 09:53:00,
2013-04-26 03:03:00,42.0,29.0,-100.00,SE,127,2.0,2.0,59,-99.99,,,-99.99,,2013-04-26 10:03:00,
2013-04-26 03:12:00,42.0,29.0,-100.00,SE,133,2.0,3.0,59,-99.99,,,-99.99,,2013-04-26 10:12:00,
2013-04-26 03:22:00,42.0,29.0,-100.00,ESE,120,4.0,4.0,60,-99.99,,,-99.99,,2013-04-26 10:22:00,
2013-04-26 03:33:00,42.0,29.0,-100.00,ESE,119,3.0,4.0,60,-99.99,,,-99.99,,2013-04-26 10:33:00,
2013-04-26 03:42:00,42.0,30.0,-100.00,SSE,165,1.0,2.0,61,-99.99,,,-99.99,,2013-04-26 10:42:00,
2013-04-26 03:52:00,42.0,29.0,-100.00,SE,130,3.0,3.0,59,-99.99,,,-99.99,,2013-04-26 10:52:00,
2013-04-26 04:02:00,42.0,29.0,-100.00,SSE,158,0.0,2.0,60,-99.99,,,-99.99,,2013-04-26 11:02:00,
2013-04-26 04:11:00,41.0,29.0,-100.00,ESE,123,2.0,3.0,62,-99.99,,,-99.99,,2013-04-26 11:11:00,
2013-04-26 04:22:00,41.0,28.0,-100.00,North,-999,0.0,0.0,60,-99.99,,,-99.99,,2013-04-26 11:22:00,
2013-04-26 04:32:00,41.0,29.0,-100.00,SE,137,3.0,4.0,61,-99.99,,,-99.99,,2013-04-26 11:32:00,
2013-04-26 04:41:00,40.0,28.0,-100.00,ESE,117,2.0,3.0,61,-99.99,,,-99.99,,2013-04-26 11:41:00,
2013-04-26 04:52:00,40.0,28.0,-100.00,ESE,114,2.0,3.0,62,-99.99,,,-99.99,,2013-04-26 11:52:00,
2013-04-26 05:01:00,41.0,29.0,-100.00,SE,134,2.0,3.0,62,-99.99,,,-99.99,,2013-04-26 12:01:00,
2013-04-26 05:11:00,41.0,29.0,-100.00,ESE,109,2.0,3.0,61,-99.99,,,-99.99,,2013-04-26 12:11:00,
2013-04-26 05:21:00,41.0,29.0,-100.00,SE,124,3.0,3.0,61,-99.99,,,-99.99,,2013-04-26 12:21:00,
2013-04-26 05:32:00,40.0,28.0,-100.00,SE,124,2.0,3.0,63,-99.99,,,-99.99,,2013-04-26 12:32:00,
2013-04-26 05:41:00,40.0,30.0,-100.00,SE,141,3.0,3.0,67,-99.99,,,-99.99,,2013-04-26 12:41:00,
2013-04-26 05:52:00,39.0,29.0,-100.00,SE,133,1.0,2.0,67,-99.99,,,-99.99,,2013-04-26 12:52:00,
2013-04-26 06:01:00,39.0,29.0,-100.00,SE,126,2.0,3.0,68,-99.99,,,-99.99,,2013-04-26 13:01:00,
2013-04-26 06:11:00,39.0,30.0,-100.00,ESE,107,2.0,3.0,70,-99.99,,,-99.99,,2013-04-26 13:11:00,
2013-04-26 06:21:00,38.0,31.0,-100.00,SE,127,1.0,2.0,74,-99.99,,,-99.99,,2013-04-26 13:21:00,
2013-04-26 06:31:00,39.0,30.0,-100.00,ESE,113,2.0,3.0,70,-99.99,,,-99.99,,2013-04-26 13:31:00,
2013-04-26 06:41:00,39.0,31.0,-100.00,SE,131,3.0,3.0,74,-99.99,,,-99.99,,2013-04-26 13:41:00,
2013-04-26 06:52:00,39.0,31.0,-100.00,ESE,119,3.0,4.0,73,-99.99,,,-99.99,,2013-04-26 13:52:00,
2013-04-26 07:01:00,39.0,30.0,-100.00,ESE,112,3.0,4.0,71,-99.99,,,-99.99,,2013-04-26 14:01:00,
2013-04-26 07:11:00,38.0,30.0,-100.00,ESE,113,3.0,4.0,72,-99.99,,,-99.99,,2013-04-26 14:11:00,
2013-04-26 07:21:00,39.0,31.0,-100.00,ESE,123,3.0,4.0,74,-99.99,,,-99.99,,2013-04-26 14:21:00,
2013-04-26 07:31:00,39.0,31.0,-100.00,ESE,119,3.0,4.0,73,-99.99,,,-99.99,,2013-04-26 14:31:00,
2013-04-26 07:41:00,39.0,31.0,-100.00,ESE,117,3.0,4.0,72,-99.99,,,-99.99,,2013-04-26 14:41:00,
2013-04-26 07:51:00,39.0,30.0,-100.00,ESE,113,2.0,3.0,71,-99.99,,,-99.99,,2013-04-26 14:51:00,
2013-04-26 08:01:00,39.0,31.0,-100.00,SE,134,2.0,3.0,74,-99.99,,,-99.99,,2013-04-26 15:01:00,
2013-04-26 08:11:00,39.0,31.0,-100.00,SE,134,2.0,3.0,73,-99.99,,,-99.99,,2013-04-26 15:11:00,
2013-04-26 08:21:00,40.0,31.0,-100.00,South,184,0.0,0.0,72,-99.99,,,-99.99,,2013-04-26 15:21:00,
2013-04-26 08:33:00,39.0,32.0,-100.00,SE,128,0.0,3.0,76,-99.99,,,-99.99,,2013-04-26 15:33:00,
2013-04-26 08:42:00,39.0,32.0,-100.00,South,182,0.0,1.0,77,-99.99,,,-99.99,,2013-04-26 15:42:00,
2013-04-26 08:53:00,39.0,31.0,-100.00,ESE,114,2.0,2.0,73,-99.99,,,-99.99,,2013-04-26 15:53:00,
2013-04-26 09:03:00,40.0,32.0,-100.00,North,-999,0.0,0.0,72,-99.99,,,-99.99,,2013-04-26 16:03:00,
2013-04-26 09:12:00,42.0,33.0,-100.00,SW,216,0.0,2.0,69,-99.99,,,-99.99,,2013-04-26 16:12:00,
2013-04-26 09:23:00,43.0,32.0,-100.00,North,-999,0.0,0.0,66,-99.99,,,-99.99,,2013-04-26 16:23:00,
2013-04-26 09:33:00,44.0,33.0,-100.00,NW,304,0.0,2.0,64,-99.99,,,-99.99,,2013-04-26 16:33:00,
2013-04-26 09:42:00,44.0,33.0,-100.00,WNW,296,1.0,3.0,65,-99.99,,,-99.99,,2013-04-26 16:42:00,
2013-04-26 09:52:00,44.0,33.0,-100.00,WNW,295,1.0,2.0,66,-99.99,,,-99.99,,2013-04-26 16:52:00,
2013-04-26 10:02:00,44.0,34.0,-100.00,NW,306,0.0,2.0,67,-99.99,,,-99.99,,2013-04-26 17:02:00,
2013-04-26 10:11:00,44.0,34.0,-100.00,WNW,292,1.0,3.0,68,-99.99,,,-99.99,,2013-04-26 17:11:00,
2013-04-26 10:21:00,44.0,35.0,-100.00,WNW,301,2.0,3.0,70,-99.99,,,-99.99,,2013-04-26 17:21:00,
2013-04-26 10:31:00,45.0,35.0,-100.00,NW,305,1.0,3.0,69,-99.99,,,-99.99,,2013-04-26 17:31:00,
2013-04-26 10:41:00,45.0,36.0,-100.00,WNW,296,0.0,3.0,70,-99.99,,,-99.99,,2013-04-26 17:41:00,
2013-04-26 10:51:00,46.0,36.0,-100.00,WNW,294,0.0,4.0,69,-99.99,,,-99.99,,2013-04-26 17:51:00,
2013-04-26 11:02:00,46.0,37.0,-100.00,WNW,291,2.0,3.0,71,-99.99,,,-99.99,,2013-04-26 18:02:00,
2013-04-26 11:11:00,46.0,37.0,-100.00,NW,304,2.0,3.0,72,-99.99,,,-99.99,,2013-04-26 18:11:00,
2013-04-26 11:22:00,47.0,37.0,-100.00,WNW,301,1.0,3.0,69,-99.99,,,-99.99,,2013-04-26 18:22:00,
2013-04-26 11:33:00,47.0,38.0,-100.00,NW,306,2.0,3.0,71,-99.99,,,-99.99,,2013-04-26 18:33:00,
2013-04-26 11:41:00,48.0,36.0,-100.00,North,-999,0.0,0.0,62,-99.99,,,-99.99,,2013-04-26 18:41:00,
2013-04-26 11:52:00,48.0,38.0,-100.00,WNW,298,3.0,4.0,67,-99.99,,,-99.99,,2013-04-26 18:52:00,
2013-04-26 12:01:00,49.0,38.0,-100.00,NW,305,3.0,4.0,65,-99.99,,,-99.99,,2013-04-26 19:01:00,
2013-04-26 12:11:00,49.0,38.0,-100.00,NW,305,1.0,3.0,65,-99.99,,,-99.99,,2013-04-26 19:11:00,
2013-04-26 12:22:00,50.0,39.0,-100.00,WNW,302,3.0,4.0,65,-99.99,,,-99.99,,2013-04-26 19:22:00,
2013-04-26 12:31:00,51.0,38.0,-100.00,NNW,332,1.0,3.0,60,-99.99,,,-99.99,,2013-04-26 19:31:00,
2013-04-26 12:41:00,52.0,36.0,-100.00,NW,316,2.0,4.0,55,-99.99,,,-99.99,,2013-04-26 19:41:00,
2013-04-26 12:52:00,52.0,35.0,-100.00,NW,309,2.0,3.0,53,-99.99,,,-99.99,,2013-04-26 19:52:00,
2013-04-26 13:02:00,54.0,32.0,-100.00,North,-999,0.0,0.0,43,-99.99,,,-99.99,,2013-04-26 20:02:00,
2013-04-26 13:11:00,56.0,31.0,-100.00,NW,312,0.0,3.0,39,-99.99,,,-99.99,,2013-04-26 20:11:00,
2013-04-26 13:21:00,57.0,27.0,-100.00,NW,326,1.0,2.0,31,-99.99,,,-99.99,,2013-04-26 20:21:00,
2013-04-26 13:32:00,57.0,29.0,-100.00,NW,320,1.0,3.0,34,-99.99,,,-99.99,,2013-04-26 20:32:00,
2013-04-26 13:41:00,56.0,27.0,-100.00,NNW,332,1.0,3.0,33,-99.99,,,-99.99,,2013-04-26 20:41:00,
2013-04-26 13:51:00,57.0,30.0,-100.00,NNW,336,2.0,3.0,35,-99.99,,,-99.99,,2013-04-26 20:51:00,
2013-04-26 14:01:00,56.0,41.0,-100.00,NW,322,0.0,1.0,56,-99.99,,,-99.99,,2013-04-26 21:01:00,
2013-04-26 14:11:00,57.0,36.0,-100.00,North,-999,0.0,0.0,46,-99.99,,,-99.99,,2013-04-26 21:11:00,
2013-04-26 14:21:00,57.0,30.0,-100.00,North,-999,0.0,0.0,35,-99.99,,,-99.99,,2013-04-26 21:21:00,
2013-04-26 14:32:00,59.0,23.0,-100.00,NW,309,1.0,3.0,25,-99.99,,,-99.99,,2013-04-26 21:32:00,
2013-04-26 14:42:00,59.0,26.0,-100.00,NW,326,2.0,3.0,28,-99.99,,,-99.99,,2013-04-26 21:42:00,
2013-04-26 14:52:00,60.0,24.0,-100.00,NW,320,2.0,3.0,25,-99.99,,,-99.99,,2013-04-26 21:52:00,
2013-04-26 15:02:00,62.0,20.0,-100.00,NNW,336,2.0,3.0,20,-99.99,,,-99.99,,2013-04-26 22:02:00,
2013-04-26 15:12:00,62.0,20.0,-100.00,NW,319,2.0,3.0,20,-99.99,,,-99.99,,2013-04-26 22:12:00,
2013-04-26 15:22:00,62.0,20.0,-100.00,NNW,333,2.0,3.0,20,-99.99,,,-99.99,,2013-04-26 22:22:00,
2013-04-26 15:32:00,62.0,21.0,-100.00,WNW,292,2.0,4.0,20,-99.99,,,-99.99,,2013-04-26 22:32:00,
2013-04-26 15:42:00,62.0,20.0,-100.00,NW,311,1.0,3.0,20,-99.99,,,-99.99,,2013-04-26 22:42:00,
2013-04-26 15:52:00,63.0,19.0,-100.00,NW,313,2.0,3.0,18,-99.99,,,-99.99,,2013-04-26 22:52:00,
2013-04-26 16:01:00,62.0,23.0,-100.00,WNW,294,2.0,3.0,22,-99.99,,,-99.99,,2013-04-26 23:01:00,
2013-04-26 16:11:00,64.0,22.0,-100.00,WNW,299,2.0,3.0,20,-99.99,,,-99.99,,2013-04-26 23:11:00,
2013-04-26 16:21:00,63.0,21.0,-100.00,NW,304,2.0,3.0,20,-99.99,,,-99.99,,2013-04-26 23:21:00,
2013-04-26 16:32:00,63.0,19.0,-100.00,WNW,298,3.0,3.0,18,-99.99,,,-99.99,,2013-04-26 23:32:00,
2013-04-26 16:42:00,65.0,13.0,-100.00,WNW,299,2.0,3.0,13,-99.99,,,-99.99,,2013-04-26 23:42:00,
2013-04-26 16:52:00,65.0,11.0,-100.00,WNW,298,2.0,3.0,12,-99.99,,,-99.99,,2013-04-26 23:52:00,
2013-04-26 17:01:00,66.0,12.0,-100.00,WNW,295,2.0,3.0,12,-99.99,,,-99.99,,2013-04-27 00:01:00,
2013-04-26 17:11:00,66.0,8.0,-100.00,WSW,253,2.0,3.0,10,-99.99,,,-99.99,,2013-04-27 00:11:00,
2013-04-26 17:21:00,64.0,10.0,-100.00,WSW,258,1.0,4.0,12,-99.99,,,-99.99,,2013-04-27 00:21:00,
2013-04-26 17:32:00,65.0,7.0,-100.00,West,270,2.0,3.0,10,-99.99,,,-99.99,,2013-04-27 00:32:00,
2013-04-26 17:41:00,63.0,25.0,-100.00,WSW,247,3.0,6.0,23,-99.99,,,-99.99,,2013-04-27 00:41:00,
2013-04-26 17:51:00,63.0,24.0,-100.00,WNW,282,2.0,4.0,22,-99.99,,,-99.99,,2013-04-27 00:51:00,
2013-04-26 18:01:00,62.0,17.0,-100.00,West,281,2.0,3.0,17,-99.99,,,-99.99,,2013-04-27 01:01:00,
2013-04-26 18:11:00,63.0,16.0,-100.00,WNW,289,2.0,3.0,16,-99.99,,,-99.99,,2013-04-27 01:11:00,
2013-04-26 18:21:00,62.0,15.0,-100.00,WNW,284,0.0,2.0,16,-99.99,,,-99.99,,2013-04-27 01:21:00,
2013-04-26 18:32:00,62.0,18.0,-100.00,NW,308,0.0,1.0,18,-99.99,,,-99.99,,2013-04-27 01:32:00,
2013-04-26 18:41:00,62.0,15.0,-100.00,West,268,1.0,3.0,16,-99.99,,,-99.99,,2013-04-27 01:41:00,
2013-04-26 18:52:00,62.0,20.0,-100.00,WNW,302,3.0,6.0,20,-99.99,,,-99.99,,2013-04-27 01:52:00,
2013-04-26 19:01:00,62.0,20.0,-100.00,East,86,0.0,2.0,20,-99.99,,,-99.99,,2013-04-27 02:01:00,
2013-04-26 19:11:00,63.0,29.0,-100.00,West,260,0.0,2.0,27,-99.99,,,-99.99,,2013-04-27 02:11:00,
2013-04-26 19:22:00,62.0,32.0,-100.00,ENE,78,1.0,3.0,32,-99.99,,,-99.99,,2013-04-27 02:22:00,
2013-04-26 19:32:00,62.0,32.0,-100.00,SW,233,2.0,5.0,33,-99.99,,,-99.99,,2013-04-27 02:32:00,
2013-04-26 19:42:00,61.0,33.0,-100.00,WNW,296,1.0,2.0,35,-99.99,,,-99.99,,2013-04-27 02:42:00,
2013-04-26 19:51:00,61.0,34.0,-100.00,North,-999,0.0,0.0,36,-99.99,,,-99.99,,2013-04-27 02:51:00,
2013-04-26 20:02:00,59.0,34.0,-100.00,East,82,0.0,2.0,39,-99.99,,,-99.99,,2013-04-27 03:02:00,
2013-04-26 20:11:00,58.0,36.0,-100.00,SE,128,1.0,3.0,43,-99.99,,,-99.99,,2013-04-27 03:11:00,
2013-04-26 20:22:00,57.0,36.0,-100.00,SE,143,0.0,3.0,45,-99.99,,,-99.99,,2013-04-27 03:22:00,
2013-04-26 20:32:00,57.0,36.0,-100.00,SE,143,0.0,3.0,45,-99.99,,,-99.99,,2013-04-27 03:32:00,
2013-04-26 20:42:00,57.0,36.0,-100.00,SE,143,0.0,3.0,45,-99.99,,,-99.99,,2013-04-27 03:42:00,
2013-04-26 20:52:00,57.0,36.0,-100.00,SE,143,0.0,3.0,45,-99.99,,,-99.99,,2013-04-27 03:52:00,
2013-04-26 21:02:00,54.0,35.0,-100.00,SE,128,4.0,4.0,48,-99.99,,,-99.99,,2013-04-27 04:02:00,
2013-04-26 21:12:00,54.0,35.0,-100.00,SE,131,4.0,5.0,48,-99.99,,,-99.99,,2013-04-27 04:12:00,
2013-04-26 21:22:00,54.0,35.0,-100.00,SE,127,4.0,5.0,49,-99.99,,,-99.99,,2013-04-27 04:22:00,
2013-04-26 21:33:00,53.0,34.0,-100.00,ESE,120,3.0,5.0,49,-99.99,,,-99.99,,2013-04-27 04:33:00,
2013-04-26 21:42:00,53.0,35.0,-100.00,SE,124,4.0,5.0,50,-99.99,,,-99.99,,2013-04-27 04:42:00,
2013-04-26 21:52:00,53.0,35.0,-100.00,SE,134,3.0,4.0,50,-99.99,,,-99.99,,2013-04-27 04:52:00,
2013-04-26 22:02:00,52.0,34.0,-100.00,SE,130,4.0,5.0,51,-99.99,,,-99.99,,2013-04-27 05:02:00,
2013-04-26 22:12:00,52.0,34.0,-100.00,SE,136,4.0,5.0,51,-99.99,,,-99.99,,2013-04-27 05:12:00,
2013-04-26 22:22:00,52.0,34.0,-100.00,SE,137,4.0,5.0,51,-99.99,,,-99.99,,2013-04-27 05:22:00,
2013-04-26 22:32:00,52.0,34.0,-100.00,SE,127,4.0,5.0,51,-99.99,,,-99.99,,2013-04-27 05:32:00,
2013-04-26 22:42:00,51.0,34.0,-100.00,SE,133,3.0,4.0,52,-99.99,,,-99.99,,2013-04-27 05:42:00,
2013-04-26 22:52:00,51.0,34.0,-100.00,SE,127,4.0,5.0,53,-99.99,,,-99.99,,2013-04-27 05:52:00,
2013-04-26 23:01:00,51.0,35.0,-100.00,South,184,4.0,6.0,55,-99.99,,,-99.99,,2013-04-27 06:01:00,
2013-04-26 23:12:00,50.0,34.0,-100.00,ESE,123,2.0,4.0,55,-99.99,,,-99.99,,2013-04-27 06:12:00,
2013-04-26 23:22:00,50.0,35.0,-100.00,SE,133,1.0,2.0,56,-99.99,,,-99.99,,2013-04-27 06:22:00,
2013-04-26 23:32:00,50.0,35.0,-100.00,SE,133,1.0,2.0,56,-99.99,,,-99.99,,2013-04-27 06:32:00,
2013-04-26 23:41:00,49.0,34.0,-100.00,SE,130,3.0,3.0,56,-99.99,,,-99.99,,2013-04-27 06:41:00,
2013-04-26 23:51:00,49.0,34.0,-100.00,SE,131,2.0,4.0,57,-99.99,,,-99.99,,2013-04-27 06:51:00,